createdAt,value
2019-04-10T00:04:29.618Z,16.55
2019-04-10T00:12:47.688Z,18.07
2019-04-10T00:21:27.594Z,13.45
2019-04-10T00:26:34.458Z,18.55
2019-04-10T00:35:52.002Z,13.70
2019-04-10T00:40:59.654Z,11.65
2019-04-10T00:46:06.593Z,13.18
2019-04-10T00:51:13.463Z,19.55
2019-04-10T00:56:20.777Z,17.12
2019-04-10T01:01:27.710Z,15.80
2019-04-10T01:06:34.509Z,18.95
2019-04-10T01:11:41.478Z,17.95
2019-04-10T01:16:49.365Z,14.65
2019-04-10T01:21:56.985Z,13.88
2019-04-10T01:27:05.263Z,15.28
2019-04-10T01:32:12.489Z,15.58
2019-04-10T01:37:19.465Z,15.10
2019-04-10T01:42:26.455Z,16.10
2019-04-10T01:47:33.497Z,15.08
2019-04-10T01:52:41.455Z,14.93
2019-04-10T01:57:49.080Z,15.13
2019-04-10T02:02:56.113Z,17.55
2019-04-10T02:08:09.078Z,17.55
2019-04-10T02:13:12.270Z,14.53
2019-04-10T02:18:19.503Z,14.80
2019-04-10T02:23:26.607Z,14.47
2019-04-10T02:28:33.506Z,21.93
2019-04-10T02:33:41.237Z,13.90
2019-04-10T02:38:59.275Z,13.18
2019-04-10T02:43:58.036Z,13.35
2019-04-10T02:49:06.194Z,15.80
2019-04-10T02:54:14.086Z,15.13
2019-04-10T02:59:23.362Z,21.10
2019-04-10T03:04:31.118Z,22.22
2019-04-10T03:09:53.306Z,16.55
2019-04-10T03:14:47.740Z,20.57
2019-04-10T03:19:56.082Z,17.07
2019-04-10T03:25:04.414Z,25.70
2019-04-10T03:30:14.911Z,32.05
2019-04-10T03:35:30.352Z,24.45
2019-04-10T03:40:37.626Z,19.20
2019-04-10T03:45:44.546Z,18.62
2019-04-10T03:50:52.176Z,16.90
2019-04-10T03:55:59.474Z,19.07
2019-04-10T04:01:06.912Z,17.48
2019-04-10T04:06:14.096Z,18.17
2019-04-10T04:11:21.804Z,19.42
2019-04-10T04:16:28.729Z,18.45
2019-04-10T04:21:36.257Z,20.08
2019-04-10T04:26:45.066Z,24.02
2019-04-10T04:31:52.707Z,20.80
2019-04-10T04:37:00.625Z,25.23
2019-04-10T04:42:07.583Z,20.48
2019-04-10T04:47:15.654Z,19.60
2019-04-10T04:52:23.782Z,20.08
2019-04-10T04:57:33.727Z,21.27
2019-04-10T05:02:42.616Z,22.93
2019-04-10T05:07:59.349Z,22.52
2019-04-10T05:18:06.238Z,22.45
2019-04-10T05:28:20.400Z,20.30
2019-04-10T05:33:27.435Z,17.27
2019-04-10T05:38:35.536Z,18.20
2019-04-10T05:43:42.644Z,19.10
2019-04-10T05:48:50.489Z,15.98
2019-04-10T05:53:58.021Z,17.65
2019-04-10T05:59:08.010Z,17.73
2019-04-10T06:04:14.430Z,19.00
2019-04-10T06:09:22.659Z,16.90
2019-04-10T06:14:30.402Z,20.85
2019-04-10T06:19:38.501Z,17.57
2019-04-10T06:24:46.906Z,15.40
2019-04-10T06:29:53.623Z,19.82
2019-04-10T06:35:01.780Z,16.75
2019-04-10T06:40:18.149Z,15.20
2019-04-10T06:45:19.738Z,16.42
2019-04-10T06:50:28.639Z,16.90
2019-04-10T06:55:38.446Z,16.65
2019-04-10T07:00:51.047Z,16.20
2019-04-10T07:06:06.071Z,15.38
2019-04-10T07:11:08.689Z,15.00
2019-04-10T07:16:12.765Z,12.63
2019-04-10T07:21:20.125Z,13.72
2019-04-10T07:26:35.441Z,14.40
2019-04-10T07:31:37.921Z,16.97
2019-04-10T07:36:46.931Z,14.98
2019-04-10T07:41:55.749Z,12.15
2019-04-10T07:47:02.764Z,13.53
2019-04-10T07:52:10.606Z,9.58
2019-04-10T07:57:17.559Z,13.18
2019-04-10T08:02:25.489Z,12.10
2019-04-10T08:07:35.734Z,8.58
2019-04-10T08:12:47.349Z,11.53
2019-04-10T08:22:57.902Z,11.00
2019-04-10T08:28:04.669Z,8.70
2019-04-10T08:33:11.994Z,10.00
2019-04-10T08:38:19.643Z,9.13
2019-04-10T08:43:26.685Z,11.57
2019-04-10T08:48:34.549Z,10.70
2019-04-10T08:53:42.480Z,11.85
2019-04-10T08:58:51.802Z,12.28
2019-04-10T09:03:59.422Z,11.88
2019-04-10T09:09:09.733Z,12.95
2019-04-10T09:14:17.079Z,12.43
2019-04-10T09:19:25.606Z,13.68
2019-04-10T09:24:32.500Z,12.75
2019-04-10T09:29:40.361Z,11.18
2019-04-10T09:34:49.895Z,13.10
2019-04-10T09:39:58.021Z,11.45
2019-04-10T09:45:05.596Z,17.65
2019-04-10T09:50:13.091Z,12.63
2019-04-10T09:55:20.542Z,11.50
2019-04-10T10:00:27.882Z,12.13
2019-04-10T10:05:35.485Z,12.45
2019-04-10T10:10:42.589Z,13.25
2019-04-10T10:15:49.534Z,12.70
2019-04-10T10:20:56.547Z,11.28
2019-04-10T10:26:03.851Z,10.38
2019-04-10T10:31:11.563Z,16.30
2019-04-10T10:36:18.450Z,12.07
2019-04-10T10:41:26.416Z,16.62
2019-04-10T10:46:33.548Z,21.42
2019-04-10T10:51:40.597Z,12.78
2019-04-10T10:56:48.584Z,11.33
2019-04-10T11:01:55.983Z,16.23
2019-04-10T11:07:04.613Z,11.38
2019-04-10T11:12:12.193Z,10.40
2019-04-10T11:17:19.936Z,9.90
2019-04-10T11:22:27.429Z,22.42
2019-04-10T11:27:35.572Z,12.13
2019-04-10T11:32:42.593Z,13.03
2019-04-10T11:37:53.232Z,10.30
2019-04-10T11:43:04.709Z,12.98
2019-04-10T11:48:10.331Z,21.00
2019-04-10T11:53:19.091Z,13.65
2019-04-10T11:58:28.901Z,10.82
2019-04-10T12:03:37.118Z,10.15
2019-04-10T12:09:08.465Z,12.37
2019-04-10T12:13:54.378Z,13.03
2019-04-10T12:19:02.676Z,14.40
2019-04-10T12:24:09.609Z,14.18
2019-04-10T12:29:16.575Z,13.25
2019-04-10T12:34:24.580Z,9.45
2019-04-10T12:39:32.204Z,12.85
2019-04-10T12:44:42.726Z,11.63
2019-04-10T12:49:50.585Z,9.73
2019-04-10T12:54:57.479Z,10.82
2019-04-10T13:00:05.264Z,12.85
2019-04-10T13:05:13.309Z,9.18
2019-04-10T13:10:20.478Z,11.25
2019-04-10T13:15:27.629Z,8.80
2019-04-10T13:20:34.688Z,22.60
2019-04-10T13:25:42.729Z,11.18
2019-04-10T13:30:53.787Z,11.40
2019-04-10T13:35:59.562Z,8.98
2019-04-10T13:41:06.589Z,8.30
2019-04-10T13:46:14.260Z,8.65
2019-04-10T13:51:21.460Z,10.70
2019-04-10T13:56:28.805Z,10.65
2019-04-10T14:01:38.437Z,10.88
2019-04-10T14:06:49.269Z,11.03
2019-04-10T14:11:57.582Z,15.03
2019-04-10T14:17:06.855Z,10.10
2019-04-10T14:22:14.246Z,14.03
2019-04-10T14:32:38.167Z,10.45
2019-04-10T14:37:45.475Z,11.28
2019-04-10T14:42:53.560Z,11.12
2019-04-10T14:48:03.680Z,9.05
2019-04-10T14:53:11.742Z,9.45
2019-04-10T14:58:27.528Z,10.80
2019-04-10T15:03:30.459Z,11.05
2019-04-10T15:08:48.801Z,8.48
2019-04-10T15:13:57.218Z,11.20
2019-04-10T15:19:04.574Z,7.78
2019-04-10T15:24:12.602Z,13.45
2019-04-10T15:29:21.322Z,8.40
2019-04-10T15:34:28.593Z,9.43
2019-04-10T15:39:39.958Z,9.63
2019-04-10T15:44:46.491Z,7.20
2019-04-10T15:49:53.632Z,10.58
2019-04-10T15:55:01.558Z,7.22
2019-04-10T16:00:12.676Z,7.62
2019-04-10T16:05:20.066Z,8.15
2019-04-10T16:10:46.285Z,6.70
2019-04-10T16:15:54.718Z,7.95
2019-04-10T16:21:02.084Z,9.60
2019-04-10T16:31:16.471Z,7.10
2019-04-10T16:36:23.566Z,9.15
2019-04-10T16:41:31.189Z,7.62
2019-04-10T16:46:38.595Z,12.23
2019-04-10T16:51:45.567Z,7.20
2019-04-10T16:56:52.591Z,10.68
2019-04-10T17:02:00.434Z,9.85
2019-04-10T17:07:08.661Z,8.85
2019-04-10T17:12:15.671Z,7.97
2019-04-10T17:17:23.463Z,7.10
2019-04-10T17:22:37.119Z,8.03
2019-04-10T17:32:46.660Z,11.00
2019-04-10T17:37:54.254Z,9.85
2019-04-10T17:48:09.516Z,12.93
2019-04-10T17:53:17.288Z,9.27
2019-04-10T17:58:25.921Z,17.05
2019-04-10T18:03:42.973Z,10.20
2019-04-10T18:08:41.596Z,8.75
2019-04-10T18:13:49.242Z,11.12
2019-04-10T18:18:56.792Z,11.48
2019-04-10T18:24:04.147Z,9.93
2019-04-10T18:29:11.670Z,10.70
2019-04-10T18:34:19.381Z,10.93
2019-04-10T18:42:28.797Z,9.55
2019-04-10T18:47:39.145Z,9.28
2019-04-10T18:52:45.690Z,10.38
2019-04-10T18:57:52.601Z,11.08
2019-04-10T19:03:11.034Z,8.58
2019-04-10T19:08:19.684Z,9.35
2019-04-10T19:13:26.693Z,11.15
2019-04-10T19:18:33.596Z,8.78
2019-04-10T19:23:41.747Z,9.65
2019-04-10T19:28:48.846Z,8.15
2019-04-10T19:33:56.774Z,9.45
2019-04-10T19:39:05.536Z,10.45
2019-04-10T19:44:12.952Z,11.15
2019-04-10T19:49:20.064Z,12.88
2019-04-10T19:54:28.205Z,7.83
2019-04-10T19:59:37.249Z,10.40
2019-04-10T20:04:45.050Z,7.75
2019-04-10T20:09:52.818Z,10.28
2019-04-10T20:15:00.501Z,10.58
2019-04-10T20:20:08.443Z,10.18
2019-04-10T20:25:16.471Z,10.53
2019-04-10T20:30:26.268Z,12.60
2019-04-10T20:36:11.033Z,9.25
2019-04-10T20:41:18.399Z,7.83
2019-04-10T20:46:26.321Z,10.38
2019-04-10T20:56:41.062Z,9.68
2019-04-10T21:01:49.095Z,8.55
2019-04-10T21:06:56.639Z,8.85
2019-04-10T21:12:08.580Z,12.75
2019-04-10T21:17:12.491Z,11.63
2019-04-10T21:22:20.355Z,9.45
2019-04-10T21:27:28.005Z,10.68
2019-04-10T21:33:02.273Z,10.50
2019-04-10T21:38:09.453Z,10.03
2019-04-10T21:43:18.538Z,10.33
2019-04-10T21:48:26.602Z,8.40
2019-04-10T21:53:34.453Z,8.90
2019-04-10T21:58:42.576Z,9.48
2019-04-10T22:03:50.520Z,7.45
2019-04-10T22:09:15.345Z,14.03
2019-04-10T22:14:24.268Z,9.65
2019-04-10T22:19:31.543Z,13.20
2019-04-10T22:24:38.633Z,13.10
2019-04-10T22:29:45.532Z,11.30
2019-04-10T22:34:52.836Z,11.20
2019-04-10T22:40:01.103Z,14.60
2019-04-10T22:45:15.559Z,12.53
2019-04-10T22:50:22.583Z,14.65
2019-04-10T22:55:29.583Z,14.07
2019-04-10T23:00:37.602Z,12.68
2019-04-10T23:05:44.797Z,12.43
2019-04-10T23:10:51.640Z,11.48
2019-04-10T23:15:59.673Z,9.73
2019-04-10T23:21:08.141Z,9.93
2019-04-10T23:26:15.931Z,9.73
2019-04-10T23:31:23.721Z,9.68
2019-04-10T23:36:31.729Z,7.95
2019-04-10T23:41:39.785Z,9.70
2019-04-10T23:46:47.452Z,9.00
2019-04-10T23:51:55.662Z,8.80
2019-04-10T23:57:03.134Z,9.30
